Time;durP1;ratioP1;P1;durP2;ratioP2;P2;SDS_P1;SDS_P2;PMS_P1;PMS_P2;Temp;Humidity;BMP_temperature;BMP_pressure;BME280_temperature;BME280_humidity;BME280_pressure;Samples;Min_cycle;Max_cycle;Signal;HPM_P1;HPM_P2
2022/07/04 00:00:00;;;;;;;;;;;18.20;99.90;;;;;;4591202;19;19970;-34
2022/07/04 00:01:32;;;;;;;;;;;18.20;99.90;;;;;;4589486;19;19923;-32
2022/07/04 00:03:03;;;;;;;;;;;18.20;99.90;;;;;;4589678;19;20339;-32
2022/07/04 00:04:33;;;;;;;;;;;18.20;99.90;;;;;;4591258;19;19921;-32
2022/07/04 00:06:04;;;;;;;;;;;18.10;99.90;;;;;;4590984;19;19911;-33
2022/07/04 00:07:36;;;;;;;;;;;18.10;99.90;;;;;;4590777;19;19927;-31
2022/07/04 00:09:07;;;;;;;;;;;18.20;99.90;;;;;;4590836;19;19975;-32
2022/07/04 00:10:38;;;;;;;;;;;18.10;99.90;;;;;;4590910;19;20264;-33
2022/07/04 00:12:09;;;;;;;;;;;18.10;99.90;;;;;;4590931;19;20315;-32
2022/07/04 00:13:40;;;;;;;;;;;18.10;99.90;;;;;;4589633;19;19922;-32
2022/07/04 00:15:11;;;;;;;;;;;18.10;99.90;;;;;;4590256;19;19922;-32
2022/07/04 00:16:42;;;;;;;;;;;18.10;99.90;;;;;;4591211;19;19911;-32
2022/07/04 00:18:13;;;;;;;;;;;18.10;99.90;;;;;;4590375;19;19919;-32
2022/07/04 00:19:44;;;;;;;;;;;18.10;99.90;;;;;;4590568;19;20379;-32
2022/07/04 00:21:15;;;;;;;;;;;18.10;99.90;;;;;;4591005;19;19915;-34
2022/07/04 00:22:46;;;;;;;;;;;18.10;99.90;;;;;;4590494;19;19919;-32
2022/07/04 00:24:17;;;;;;;;;;;18.10;99.90;;;;;;4590471;19;19915;-34
2022/07/04 00:25:48;;;;;;;;;;;18.10;99.90;;;;;;4589855;19;19919;-33
2022/07/04 00:27:19;;;;;;;;;;;18.00;99.90;;;;;;4590418;19;19944;-34
2022/07/04 00:28:50;;;;;;;;;;;18.00;99.90;;;;;;4590229;19;20450;-32
2022/07/04 00:30:21;;;;;;;;;;;18.00;99.90;;;;;;4590095;19;19928;-32
2022/07/04 00:31:53;;;;;;;;;;;18.00;99.90;;;;;;4590809;19;20280;-32
2022/07/04 00:33:24;;;;;;;;;;;18.00;99.90;;;;;;4589783;19;19975;-32
2022/07/04 00:34:55;;;;;;;;;;;18.00;99.90;;;;;;4590177;19;19911;-32
2022/07/04 00:36:26;;;;;;;;;;;18.00;99.90;;;;;;4590247;19;19917;-32
2022/07/04 00:37:57;;;;;;;;;;;18.00;99.90;;;;;;4590555;19;19907;-32
2022/07/04 00:39:28;;;;;;;;;;;17.90;99.90;;;;;;4590864;19;19911;-32
2022/07/04 00:40:59;;;;;;;;;;;18.00;99.90;;;;;;4590264;19;19993;-33
2022/07/04 00:42:30;;;;;;;;;;;18.00;99.90;;;;;;4589741;19;19927;-33
2022/07/04 00:44:01;;;;;;;;;;;17.90;99.90;;;;;;4590703;19;19914;-34
2022/07/04 00:45:32;;;;;;;;;;;17.90;99.90;;;;;;4590336;19;19945;-32
2022/07/04 00:47:04;;;;;;;;;;;17.90;99.90;;;;;;4590280;19;19937;-32
2022/07/04 00:48:35;;;;;;;;;;;17.90;99.90;;;;;;4590158;19;19919;-32
2022/07/04 00:50:06;;;;;;;;;;;17.90;99.90;;;;;;4592620;19;19931;-32
2022/07/04 00:51:37;;;;;;;;;;;17.90;99.90;;;;;;4594232;19;19943;-32
2022/07/04 00:53:08;;;;;;;;;;;17.90;99.90;;;;;;4594866;19;19922;-32
2022/07/04 00:54:39;;;;;;;;;;;17.90;99.90;;;;;;4594973;19;19922;-32
2022/07/04 00:56:10;;;;;;;;;;;17.90;99.90;;;;;;4595368;19;19932;-33
2022/07/04 00:57:41;;;;;;;;;;;17.90;99.90;;;;;;4594297;19;19922;-34
2022/07/04 00:59:13;;;;;;;;;;;17.90;99.90;;;;;;4592144;19;19926;-32
2022/07/04 01:00:43;;;;;;;;;;;17.90;99.90;;;;;;4593892;19;20320;-34
2022/07/04 01:02:15;;;;;;;;;;;17.90;99.90;;;;;;4595037;19;19919;-32
2022/07/04 01:03:46;;;;;;;;;;;17.90;99.90;;;;;;4594377;19;19918;-32
2022/07/04 01:05:17;;;;;;;;;;;17.90;99.90;;;;;;4594776;19;20246;-32
2022/07/04 01:06:49;;;;;;;;;;;17.90;99.90;;;;;;4594537;19;19918;-31
2022/07/04 01:08:20;;;;;;;;;;;17.90;99.90;;;;;;4593120;19;19910;-32
2022/07/04 01:09:52;;;;;;;;;;;17.90;99.90;;;;;;4594046;19;19926;-34
2022/07/04 01:11:23;;;;;;;;;;;17.90;99.90;;;;;;4594306;19;19922;-32
2022/07/04 01:12:54;;;;;;;;;;;17.90;99.90;;;;;;4594380;19;20332;-32
2022/07/04 01:14:26;;;;;;;;;;;17.80;99.90;;;;;;4594358;19;19930;-33
2022/07/04 01:15:57;;;;;;;;;;;17.80;99.90;;;;;;4594432;19;19915;-32
2022/07/04 01:17:27;;;;;;;;;;;17.80;99.90;;;;;;4594191;19;19911;-32
2022/07/04 01:18:58;;;;;;;;;;;17.90;99.90;;;;;;4594252;19;19944;-32
2022/07/04 01:20:33;;;;;;;;;;;17.80;99.90;;;;;;4594000;19;19919;-33
2022/07/04 01:22:05;;;;;;;;;;;17.90;99.90;;;;;;4594008;19;19979;-32
2022/07/04 01:23:39;;;;;;;;;;;17.80;99.90;;;;;;4592888;19;19938;-34
2022/07/04 01:25:25;;;;;;;;;;;17.90;99.90;;;;;;4594169;19;19933;-32
2022/07/04 01:26:56;;;;;;;;;;;17.90;99.90;;;;;;4593801;19;19929;-32
2022/07/04 01:28:27;;;;;;;;;;;17.90;99.90;;;;;;4594078;19;19911;-32
2022/07/04 01:29:58;;;;;;;;;;;17.90;99.90;;;;;;4593817;19;19945;-34
2022/07/04 01:31:29;;;;;;;;;;;17.90;99.90;;;;;;4594673;19;19919;-33
2022/07/04 01:33:00;;;;;;;;;;;17.90;99.90;;;;;;4593009;19;19929;-33
2022/07/04 01:34:31;;;;;;;;;;;17.90;99.90;;;;;;4594030;19;20325;-32
2022/07/04 01:36:02;;;;;;;;;;;17.90;99.90;;;;;;4594001;19;19926;-32
2022/07/04 01:37:33;;;;;;;;;;;17.90;99.90;;;;;;4593785;19;19919;-34
2022/07/04 01:39:04;;;;;;;;;;;17.90;99.90;;;;;;4593567;19;20261;-32
2022/07/04 01:40:35;;;;;;;;;;;17.90;99.90;;;;;;4593671;19;19927;-34
2022/07/04 01:42:06;;;;;;;;;;;17.90;99.90;;;;;;4593547;19;20328;-32
2022/07/04 01:43:37;;;;;;;;;;;17.90;99.90;;;;;;4591837;19;19907;-32
2022/07/04 01:45:09;;;;;;;;;;;17.90;99.90;;;;;;4593747;19;19926;-32
2022/07/04 01:46:40;;;;;;;;;;;17.90;99.90;;;;;;4593608;19;19915;-32
2022/07/04 01:48:11;;;;;;;;;;;17.90;99.90;;;;;;4593686;19;19941;-32
2022/07/04 01:49:42;;;;;;;;;;;17.90;99.90;;;;;;4593030;19;19941;-32
2022/07/04 01:51:13;;;;;;;;;;;17.90;99.90;;;;;;4593536;19;19922;-32
2022/07/04 01:52:44;;;;;;;;;;;17.90;99.90;;;;;;4592589;19;20006;-34
2022/07/04 01:54:15;;;;;;;;;;;17.90;99.90;;;;;;4592808;19;19911;-33
2022/07/04 01:55:46;;;;;;;;;;;17.90;99.90;;;;;;4592113;19;19911;-31
2022/07/04 01:57:17;;;;;;;;;;;17.90;99.90;;;;;;4593219;19;19936;-33
2022/07/04 01:58:48;;;;;;;;;;;17.90;99.90;;;;;;4594129;19;19918;-32
2022/07/04 02:02:08;;;;;;;;;;;17.90;99.90;;;;;;4593233;19;19911;-32
2022/07/04 02:03:40;;;;;;;;;;;17.90;99.90;;;;;;4593711;19;19918;-32
2022/07/04 02:05:11;;;;;;;;;;;17.90;99.90;;;;;;4593365;19;19939;-32
2022/07/04 02:06:42;;;;;;;;;;;17.90;99.90;;;;;;4591647;19;19934;-33
2022/07/04 02:08:13;;;;;;;;;;;17.90;99.90;;;;;;4592786;19;19918;-32
2022/07/04 02:09:44;;;;;;;;;;;17.90;99.90;;;;;;4593602;19;19918;-32
2022/07/04 02:11:15;;;;;;;;;;;17.90;99.90;;;;;;4593561;19;19918;-32
2022/07/04 02:13:01;;;;;;;;;;;17.90;99.90;;;;;;4592746;19;19915;-33
2022/07/04 02:14:32;;;;;;;;;;;17.90;99.90;;;;;;4591901;19;20316;-34
2022/07/04 02:16:03;;;;;;;;;;;17.90;99.90;;;;;;4592604;19;19926;-32
2022/07/04 02:17:34;;;;;;;;;;;17.90;99.90;;;;;;4593713;19;20325;-32
2022/07/04 02:19:05;;;;;;;;;;;17.90;99.90;;;;;;4592566;19;19992;-32
2022/07/04 02:20:36;;;;;;;;;;;17.90;99.90;;;;;;4592765;19;19919;-32
2022/07/04 02:22:07;;;;;;;;;;;17.90;99.90;;;;;;4593444;19;19919;-32
2022/07/04 02:23:38;;;;;;;;;;;17.90;99.90;;;;;;4591657;19;19918;-32
2022/07/04 02:25:11;;;;;;;;;;;17.90;99.90;;;;;;4592574;19;20242;-32
2022/07/04 02:26:42;;;;;;;;;;;17.90;99.90;;;;;;4591636;19;19922;-32
2022/07/04 02:28:13;;;;;;;;;;;17.90;99.90;;;;;;4592148;19;20248;-34
2022/07/04 02:29:44;;;;;;;;;;;17.90;99.90;;;;;;4593158;19;19915;-32
2022/07/04 02:31:15;;;;;;;;;;;18.00;99.90;;;;;;4592447;19;19922;-32
2022/07/04 02:32:46;;;;;;;;;;;18.00;99.90;;;;;;4592249;19;19918;-32
2022/07/04 02:34:17;;;;;;;;;;;18.00;99.90;;;;;;4592420;19;19923;-32
2022/07/04 02:35:48;;;;;;;;;;;17.90;99.90;;;;;;4592269;19;19915;-34
2022/07/04 02:37:19;;;;;;;;;;;17.90;99.90;;;;;;4592700;19;19914;-32
2022/07/04 02:38:50;;;;;;;;;;;17.90;99.90;;;;;;4593101;19;19919;-32
2022/07/04 02:40:21;;;;;;;;;;;17.90;99.90;;;;;;4592986;19;19918;-32
2022/07/04 02:41:52;;;;;;;;;;;17.90;99.90;;;;;;4592262;19;19907;-34
2022/07/04 02:43:23;;;;;;;;;;;17.90;99.90;;;;;;4591000;19;19937;-34
2022/07/04 02:44:54;;;;;;;;;;;18.00;99.90;;;;;;4591072;19;19918;-32
2022/07/04 02:46:25;;;;;;;;;;;17.90;99.90;;;;;;4592330;19;19915;-33
2022/07/04 02:47:56;;;;;;;;;;;17.90;99.90;;;;;;4592118;19;19914;-34
2022/07/04 02:49:28;;;;;;;;;;;17.90;99.90;;;;;;4592568;19;19923;-34
2022/07/04 02:50:59;;;;;;;;;;;17.90;99.90;;;;;;4592818;19;19911;-32
2022/07/04 02:52:30;;;;;;;;;;;17.90;99.90;;;;;;4591991;19;19919;-34
2022/07/04 02:54:01;;;;;;;;;;;17.90;99.90;;;;;;4592315;19;20010;-32
2022/07/04 02:55:32;;;;;;;;;;;17.90;99.90;;;;;;4592542;19;19997;-33
2022/07/04 02:57:03;;;;;;;;;;;17.90;99.90;;;;;;4592465;19;19925;-33
2022/07/04 02:58:34;;;;;;;;;;;17.90;99.90;;;;;;4591969;19;19936;-32
2022/07/04 03:00:06;;;;;;;;;;;17.90;99.90;;;;;;4591939;19;19919;-32
2022/07/04 03:01:36;;;;;;;;;;;17.90;99.90;;;;;;4592407;19;19931;-32
2022/07/04 03:03:07;;;;;;;;;;;17.90;99.90;;;;;;4591584;19;19911;-32
2022/07/04 03:04:39;;;;;;;;;;;17.90;99.90;;;;;;4592073;19;19926;-32
2022/07/04 03:06:10;;;;;;;;;;;17.90;99.90;;;;;;4591886;19;19982;-32
2022/07/04 03:07:41;;;;;;;;;;;17.90;99.90;;;;;;4591622;19;19918;-33
2022/07/04 03:09:12;;;;;;;;;;;17.90;99.90;;;;;;4592209;19;20316;-32
2022/07/04 03:10:43;;;;;;;;;;;17.90;99.90;;;;;;4591821;19;19927;-34
2022/07/04 03:12:14;;;;;;;;;;;17.90;99.90;;;;;;4591250;19;19907;-32
2022/07/04 03:13:45;;;;;;;;;;;17.90;99.90;;;;;;4591745;19;19921;-33
2022/07/04 03:15:16;;;;;;;;;;;17.80;99.90;;;;;;4590524;19;20278;-32
2022/07/04 03:16:48;;;;;;;;;;;17.90;99.90;;;;;;4591602;19;19919;-32
2022/07/04 03:18:19;;;;;;;;;;;17.90;99.90;;;;;;4591708;19;19938;-33
2022/07/04 03:19:49;;;;;;;;;;;17.80;99.90;;;;;;4591831;19;19911;-34
2022/07/04 03:21:20;;;;;;;;;;;17.90;99.90;;;;;;4591524;19;19974;-33
2022/07/04 03:22:54;;;;;;;;;;;17.80;99.90;;;;;;4591092;19;19923;-32
2022/07/04 03:24:25;;;;;;;;;;;17.90;99.90;;;;;;4592248;19;19933;-32
2022/07/04 03:25:56;;;;;;;;;;;17.80;99.90;;;;;;4590487;19;19911;-32
2022/07/04 03:27:27;;;;;;;;;;;17.90;99.90;;;;;;4591096;19;19934;-33
2022/07/04 03:28:58;;;;;;;;;;;17.90;99.90;;;;;;4591658;19;20264;-33
2022/07/04 03:30:29;;;;;;;;;;;17.90;99.90;;;;;;4592316;19;19915;-33
2022/07/04 03:32:00;;;;;;;;;;;17.80;99.90;;;;;;4591128;19;19928;-32
2022/07/04 03:33:31;;;;;;;;;;;17.80;99.90;;;;;;4590133;19;19923;-33
2022/07/04 03:35:02;;;;;;;;;;;17.90;99.90;;;;;;4591427;19;19936;-32
2022/07/04 03:36:33;;;;;;;;;;;17.90;99.90;;;;;;4591869;19;19915;-32
2022/07/04 03:38:04;;;;;;;;;;;17.90;99.90;;;;;;4591236;19;19935;-33
2022/07/04 03:39:35;;;;;;;;;;;17.90;99.90;;;;;;4591271;19;19936;-32
2022/07/04 03:41:06;;;;;;;;;;;17.90;99.90;;;;;;4591787;19;19941;-34
2022/07/04 03:42:37;;;;;;;;;;;17.90;99.90;;;;;;4590612;19;19915;-32
2022/07/04 03:44:08;;;;;;;;;;;17.90;99.90;;;;;;4591940;19;19986;-32
2022/07/04 03:45:39;;;;;;;;;;;17.90;99.90;;;;;;4591416;19;19923;-32
2022/07/04 03:47:10;;;;;;;;;;;17.90;99.90;;;;;;4591355;19;19911;-32
2022/07/04 03:48:43;;;;;;;;;;;17.90;99.90;;;;;;4591602;19;19915;-32
2022/07/04 03:50:14;;;;;;;;;;;18.00;99.90;;;;;;4592975;19;19962;-31
2022/07/04 03:51:45;;;;;;;;;;;17.90;99.90;;;;;;4592980;19;19925;-31
2022/07/04 03:53:16;;;;;;;;;;;17.90;99.90;;;;;;4593651;19;20331;-33
2022/07/04 03:54:48;;;;;;;;;;;17.90;99.90;;;;;;4591475;19;19911;-32
2022/07/04 03:56:19;;;;;;;;;;;18.00;99.90;;;;;;4592205;19;20258;-33
2022/07/04 03:57:50;;;;;;;;;;;18.00;99.90;;;;;;4592016;19;19926;-32
2022/07/04 03:59:21;;;;;;;;;;;18.00;99.90;;;;;;4591625;19;20287;-32
2022/07/04 04:00:52;;;;;;;;;;;18.00;99.90;;;;;;4592372;19;19982;-32
2022/07/04 04:02:23;;;;;;;;;;;18.00;99.90;;;;;;4592294;19;20296;-32
2022/07/04 04:05:44;;;;;;;;;;;18.00;99.90;;;;;;4592752;19;19915;-33
2022/07/04 04:07:15;;;;;;;;;;;18.10;99.90;;;;;;4592665;19;20250;-32
2022/07/04 04:08:45;;;;;;;;;;;18.10;99.90;;;;;;4592507;19;20307;-32
2022/07/04 04:10:17;;;;;;;;;;;18.10;99.90;;;;;;4592012;19;19915;-33
2022/07/04 04:11:48;;;;;;;;;;;18.10;99.90;;;;;;4592318;19;19915;-32
2022/07/04 04:13:19;;;;;;;;;;;18.10;99.90;;;;;;4592593;19;20320;-33
2022/07/04 04:14:50;;;;;;;;;;;18.10;99.90;;;;;;4592486;19;19919;-34
2022/07/04 04:16:21;;;;;;;;;;;18.10;99.90;;;;;;4593162;19;19919;-32
2022/07/04 04:17:52;;;;;;;;;;;18.10;99.90;;;;;;4592686;19;19918;-34
2022/07/04 04:19:23;;;;;;;;;;;18.20;99.90;;;;;;4590762;19;19922;-31
2022/07/04 04:20:54;;;;;;;;;;;18.20;99.90;;;;;;4591027;19;19911;-32
2022/07/04 04:22:27;;;;;;;;;;;18.20;99.90;;;;;;4588702;19;19919;-34
2022/07/04 04:23:58;;;;;;;;;;;18.20;99.90;;;;;;4590010;19;19915;-32
2022/07/04 04:25:29;;;;;;;;;;;18.20;99.90;;;;;;4592182;19;19926;-32
2022/07/04 04:27:00;;;;;;;;;;;18.20;99.90;;;;;;4595351;19;20307;-32
2022/07/04 04:28:31;;;;;;;;;;;18.20;99.90;;;;;;4594809;19;19922;-32
2022/07/04 04:30:03;;;;;;;;;;;18.30;99.90;;;;;;4593828;19;20232;-32
2022/07/04 04:31:34;;;;;;;;;;;18.30;99.90;;;;;;4594099;19;19982;-30
2022/07/04 04:33:05;;;;;;;;;;;18.30;99.90;;;;;;4593811;19;19919;-32
2022/07/04 04:34:37;;;;;;;;;;;18.30;99.90;;;;;;4594222;19;19915;-32
2022/07/04 04:36:09;;;;;;;;;;;18.30;99.90;;;;;;4594684;19;19919;-32
2022/07/04 04:37:40;;;;;;;;;;;18.40;99.90;;;;;;4595257;19;19922;-31
2022/07/04 04:39:11;;;;;;;;;;;18.40;99.90;;;;;;4595412;19;19914;-32
2022/07/04 04:40:42;;;;;;;;;;;18.40;99.90;;;;;;4592310;19;19985;-32
2022/07/04 04:42:13;;;;;;;;;;;18.40;99.90;;;;;;4593983;19;19914;-32
2022/07/04 04:43:44;;;;;;;;;;;18.40;99.90;;;;;;4592050;19;20352;-31
2022/07/04 04:45:15;;;;;;;;;;;18.50;99.90;;;;;;4594697;19;19944;-32
2022/07/04 04:46:46;;;;;;;;;;;18.50;99.90;;;;;;4593599;19;19918;-32
2022/07/04 04:48:17;;;;;;;;;;;18.50;99.90;;;;;;4594274;19;19911;-33
2022/07/04 04:49:48;;;;;;;;;;;18.50;99.90;;;;;;4594998;19;20229;-32
2022/07/04 04:51:19;;;;;;;;;;;18.50;99.90;;;;;;4594772;19;19914;-32
2022/07/04 04:52:50;;;;;;;;;;;18.50;99.90;;;;;;4593509;19;19922;-34
2022/07/04 04:54:21;;;;;;;;;;;18.60;99.90;;;;;;4594154;19;19927;-32
2022/07/04 04:55:52;;;;;;;;;;;18.60;99.90;;;;;;4594859;19;19933;-33
2022/07/04 04:57:23;;;;;;;;;;;18.60;99.90;;;;;;4593256;19;20275;-33
2022/07/04 04:58:54;;;;;;;;;;;18.60;99.90;;;;;;4593936;19;19914;-32
2022/07/04 05:00:26;;;;;;;;;;;18.60;99.90;;;;;;4594265;19;19932;-33
2022/07/04 05:01:57;;;;;;;;;;;18.60;99.90;;;;;;4594301;19;19919;-32
2022/07/04 05:03:28;;;;;;;;;;;18.70;99.90;;;;;;4591859;19;19922;-34
2022/07/04 05:04:59;;;;;;;;;;;18.70;99.90;;;;;;4593140;19;20406;-33
2022/07/04 05:06:30;;;;;;;;;;;18.70;99.90;;;;;;4593974;19;19927;-32
2022/07/04 05:08:01;;;;;;;;;;;18.70;99.90;;;;;;4593205;19;19926;-32
2022/07/04 05:09:32;;;;;;;;;;;18.70;99.90;;;;;;4593801;19;19919;-32
2022/07/04 05:11:03;;;;;;;;;;;18.80;99.90;;;;;;4594387;19;19919;-32
2022/07/04 05:12:35;;;;;;;;;;;18.80;99.90;;;;;;4594677;19;19919;-32
2022/07/04 05:14:05;;;;;;;;;;;18.70;99.90;;;;;;4592477;19;19910;-32
2022/07/04 05:15:36;;;;;;;;;;;18.80;99.90;;;;;;4592556;19;20283;-32
2022/07/04 05:17:07;;;;;;;;;;;18.80;99.90;;;;;;4593641;19;20256;-32
2022/07/04 05:18:39;;;;;;;;;;;18.80;99.90;;;;;;4594139;19;19943;-33
2022/07/04 05:20:10;;;;;;;;;;;18.80;99.90;;;;;;4593842;19;20255;-34
2022/07/04 05:21:41;;;;;;;;;;;18.80;99.90;;;;;;4592990;19;19947;-32
2022/07/04 05:23:12;;;;;;;;;;;18.80;99.90;;;;;;4592297;19;19914;-33
2022/07/04 05:24:43;;;;;;;;;;;18.80;99.90;;;;;;4593158;19;19914;-32
2022/07/04 05:26:14;;;;;;;;;;;18.80;99.90;;;;;;4593141;19;19952;-32
2022/07/04 05:27:45;;;;;;;;;;;18.90;99.90;;;;;;4593714;19;20244;-32
2022/07/04 05:29:16;;;;;;;;;;;18.90;99.90;;;;;;4593616;19;19919;-32
2022/07/04 05:30:48;;;;;;;;;;;18.90;99.90;;;;;;4592535;19;19990;-33
2022/07/04 05:32:19;;;;;;;;;;;18.90;99.90;;;;;;4590948;19;19947;-33
2022/07/04 05:33:51;;;;;;;;;;;18.90;99.90;;;;;;4589787;19;19918;-32
2022/07/04 05:35:22;;;;;;;;;;;18.90;99.90;;;;;;4591624;19;19919;-32
2022/07/04 05:36:54;;;;;;;;;;;18.90;99.90;;;;;;4594436;19;20356;-32
2022/07/04 05:38:25;;;;;;;;;;;18.90;99.90;;;;;;4594078;19;19923;-32
2022/07/04 05:39:56;;;;;;;;;;;18.90;99.90;;;;;;4593818;19;19914;-32
2022/07/04 05:41:27;;;;;;;;;;;19.00;99.90;;;;;;4593323;19;19934;-32
2022/07/04 05:42:59;;;;;;;;;;;19.00;99.90;;;;;;4591711;19;20252;-32
2022/07/04 05:44:29;;;;;;;;;;;19.00;99.90;;;;;;4592415;19;19919;-32
2022/07/04 05:46:00;;;;;;;;;;;19.00;99.90;;;;;;4591104;19;19919;-33
2022/07/04 05:47:31;;;;;;;;;;;19.00;99.90;;;;;;4591268;19;19921;-32
2022/07/04 05:49:03;;;;;;;;;;;19.00;99.90;;;;;;4591100;19;19931;-33
2022/07/04 05:50:34;;;;;;;;;;;19.10;99.90;;;;;;4589971;19;20244;-33
2022/07/04 05:52:05;;;;;;;;;;;19.10;99.90;;;;;;4594014;19;19928;-31
2022/07/04 05:53:36;;;;;;;;;;;19.10;99.90;;;;;;4592961;19;19915;-34
2022/07/04 05:55:08;;;;;;;;;;;19.10;99.90;;;;;;4591850;19;19923;-32
2022/07/04 05:56:41;;;;;;;;;;;19.10;99.90;;;;;;4591723;19;19914;-33
2022/07/04 05:58:13;;;;;;;;;;;19.10;99.90;;;;;;4592256;19;19918;-33
2022/07/04 05:59:45;;;;;;;;;;;19.10;99.90;;;;;;4591913;19;19914;-34
2022/07/04 06:01:16;;;;;;;;;;;19.10;99.90;;;;;;4591709;19;19929;-32
2022/07/04 06:02:47;;;;;;;;;;;19.10;99.90;;;;;;4590878;19;19919;-33
2022/07/04 06:04:18;;;;;;;;;;;19.10;99.90;;;;;;4591118;19;19919;-31
2022/07/04 06:05:49;;;;;;;;;;;19.20;99.90;;;;;;4593576;19;19974;-32
2022/07/04 06:07:21;;;;;;;;;;;19.20;99.90;;;;;;4592296;19;19918;-32
2022/07/04 06:08:52;;;;;;;;;;;19.20;99.90;;;;;;4593173;19;19915;-31
2022/07/04 06:10:22;;;;;;;;;;;19.20;99.90;;;;;;4592526;19;19986;-32
2022/07/04 06:11:53;;;;;;;;;;;19.20;99.90;;;;;;4592447;19;19915;-32
2022/07/04 06:13:25;;;;;;;;;;;19.30;99.90;;;;;;4591891;19;19919;-32
2022/07/04 06:14:56;;;;;;;;;;;19.30;99.90;;;;;;4591879;19;19954;-32
2022/07/04 06:16:27;;;;;;;;;;;19.30;99.90;;;;;;4591260;19;19927;-32
2022/07/04 06:17:58;;;;;;;;;;;19.20;99.90;;;;;;4590911;19;19911;-34
2022/07/04 06:19:29;;;;;;;;;;;19.30;99.90;;;;;;4590901;19;19926;-32
2022/07/04 06:21:00;;;;;;;;;;;19.30;99.90;;;;;;4593766;19;19951;-32
2022/07/04 06:22:44;;;;;;;;;;;19.40;99.90;;;;;;4591661;19;19926;-34
2022/07/04 06:24:15;;;;;;;;;;;19.30;99.90;;;;;;4592673;19;20255;-32
2022/07/04 06:25:46;;;;;;;;;;;19.40;99.90;;;;;;4591540;19;19926;-32
2022/07/04 06:27:17;;;;;;;;;;;19.40;99.90;;;;;;4592019;19;20312;-34
2022/07/04 06:28:48;;;;;;;;;;;19.40;99.90;;;;;;4592008;19;19914;-33
2022/07/04 06:30:19;;;;;;;;;;;19.40;99.90;;;;;;4591432;19;19915;-33
2022/07/04 06:31:50;;;;;;;;;;;19.40;99.90;;;;;;4591547;19;19949;-33
2022/07/04 06:33:21;;;;;;;;;;;19.50;99.90;;;;;;4588736;19;19919;-33
2022/07/04 06:36:42;;;;;;;;;;;19.50;99.90;;;;;;4590666;19;19922;-32
2022/07/04 06:38:16;;;;;;;;;;;19.50;99.90;;;;;;4590650;19;19922;-32
2022/07/04 06:39:47;;;;;;;;;;;19.50;99.90;;;;;;4589775;19;19929;-32
2022/07/04 06:41:18;;;;;;;;;;;19.50;99.90;;;;;;4591854;19;19926;-34
2022/07/04 06:42:49;;;;;;;;;;;19.50;99.90;;;;;;4591402;19;20252;-32
2022/07/04 06:44:20;;;;;;;;;;;19.50;99.90;;;;;;4592306;19;19919;-33
2022/07/04 06:45:51;;;;;;;;;;;19.60;99.90;;;;;;4591135;19;20332;-33
2022/07/04 06:47:22;;;;;;;;;;;19.60;99.90;;;;;;4590290;19;19915;-32
2022/07/04 06:48:53;;;;;;;;;;;19.60;99.90;;;;;;4592236;19;19926;-33
2022/07/04 06:50:25;;;;;;;;;;;19.60;99.90;;;;;;4591139;19;19919;-32
2022/07/04 06:51:56;;;;;;;;;;;19.60;99.90;;;;;;4591332;19;20279;-32
2022/07/04 06:53:27;;;;;;;;;;;19.70;99.90;;;;;;4593172;19;19937;-33
2022/07/04 06:54:58;;;;;;;;;;;19.70;99.90;;;;;;4591936;19;19915;-33
2022/07/04 06:56:29;;;;;;;;;;;19.70;99.90;;;;;;4591116;19;20338;-33
2022/07/04 06:58:00;;;;;;;;;;;19.70;99.90;;;;;;4590852;19;19914;-32
2022/07/04 06:59:31;;;;;;;;;;;19.70;99.90;;;;;;4590880;19;19947;-32
2022/07/04 07:01:02;;;;;;;;;;;19.70;99.90;;;;;;4591056;19;19971;-32
2022/07/04 07:02:34;;;;;;;;;;;19.80;99.90;;;;;;4590701;19;19911;-32
2022/07/04 07:04:05;;;;;;;;;;;19.70;99.90;;;;;;4590714;19;20392;-32
2022/07/04 07:05:39;;;;;;;;;;;19.70;99.90;;;;;;4591893;19;19922;-32
2022/07/04 07:07:10;;;;;;;;;;;19.80;99.90;;;;;;4592451;19;20343;-33
2022/07/04 07:08:41;;;;;;;;;;;19.70;99.90;;;;;;4591461;19;20249;-33
2022/07/04 07:10:12;;;;;;;;;;;19.70;99.90;;;;;;4591841;19;19911;-32
2022/07/04 07:11:43;;;;;;;;;;;19.80;99.90;;;;;;4591655;19;19927;-33
2022/07/04 07:13:14;;;;;;;;;;;19.80;99.90;;;;;;4591943;19;19918;-32
2022/07/04 07:14:45;;;;;;;;;;;19.80;99.90;;;;;;4591236;19;20376;-31
2022/07/04 07:16:16;;;;;;;;;;;19.90;99.90;;;;;;4591654;19;19923;-32
2022/07/04 07:17:47;;;;;;;;;;;19.90;99.90;;;;;;4591549;19;19924;-32
2022/07/04 07:19:18;;;;;;;;;;;19.80;99.90;;;;;;4591817;19;19966;-30
2022/07/04 07:20:49;;;;;;;;;;;19.80;99.90;;;;;;4591031;19;19919;-32
2022/07/04 07:22:20;;;;;;;;;;;19.80;99.90;;;;;;4591502;19;20244;-32
2022/07/04 07:23:51;;;;;;;;;;;19.90;99.90;;;;;;4591053;19;20250;-33
2022/07/04 07:25:22;;;;;;;;;;;19.90;99.90;;;;;;4591169;19;19922;-33
2022/07/04 07:26:53;;;;;;;;;;;19.90;99.90;;;;;;4590244;19;19932;-33
2022/07/04 07:28:24;;;;;;;;;;;19.90;99.90;;;;;;4590794;19;19914;-32
2022/07/04 07:29:55;;;;;;;;;;;20.00;99.90;;;;;;4591988;19;20381;-32
2022/07/04 07:31:26;;;;;;;;;;;20.00;99.90;;;;;;4590957;19;19992;-32
2022/07/04 07:32:57;;;;;;;;;;;20.00;99.90;;;;;;4590628;19;20252;-33
2022/07/04 07:34:28;;;;;;;;;;;20.00;99.90;;;;;;4591268;19;19923;-32
2022/07/04 07:35:59;;;;;;;;;;;20.10;99.90;;;;;;4591439;19;20261;-32
2022/07/04 07:37:30;;;;;;;;;;;20.10;99.90;;;;;;4590724;19;20329;-33
2022/07/04 07:39:01;;;;;;;;;;;20.10;99.90;;;;;;4590505;19;20253;-33
2022/07/04 07:40:32;;;;;;;;;;;20.10;99.90;;;;;;4591363;19;19911;-32
2022/07/04 07:42:03;;;;;;;;;;;20.10;99.90;;;;;;4590816;19;19919;-33
2022/07/04 07:43:34;;;;;;;;;;;20.10;99.90;;;;;;4589928;19;19915;-32
2022/07/04 07:45:06;;;;;;;;;;;20.20;99.90;;;;;;4591624;19;19915;-32
2022/07/04 07:46:37;;;;;;;;;;;20.20;99.90;;;;;;4591705;19;19919;-31
2022/07/04 07:48:08;;;;;;;;;;;20.20;99.90;;;;;;4590606;19;19914;-32
2022/07/04 07:49:39;;;;;;;;;;;20.20;99.90;;;;;;4590658;19;19918;-32
2022/07/04 07:51:10;;;;;;;;;;;20.20;99.90;;;;;;4590115;19;19918;-33
2022/07/04 07:52:41;;;;;;;;;;;20.30;99.90;;;;;;4590277;19;20225;-32
2022/07/04 07:54:13;;;;;;;;;;;20.30;99.90;;;;;;4592676;19;19974;-32
2022/07/04 07:55:44;;;;;;;;;;;20.30;99.90;;;;;;4589597;19;19931;-32
2022/07/04 07:57:16;;;;;;;;;;;20.30;99.90;;;;;;4590220;19;20002;-34
2022/07/04 07:58:47;;;;;;;;;;;20.30;99.90;;;;;;4590651;19;19922;-32
2022/07/04 08:00:18;;;;;;;;;;;20.40;99.90;;;;;;4595295;19;20325;-33
2022/07/04 08:01:49;;;;;;;;;;;20.30;99.90;;;;;;4595779;19;20345;-33
2022/07/04 08:05:10;;;;;;;;;;;20.30;99.90;;;;;;4589816;19;19998;-33
2022/07/04 08:06:41;;;;;;;;;;;20.30;99.90;;;;;;4589881;19;19950;-32
2022/07/04 08:08:12;;;;;;;;;;;20.40;99.90;;;;;;4594518;19;20302;-32
2022/07/04 08:09:43;;;;;;;;;;;20.40;99.90;;;;;;4594025;19;20260;-32
2022/07/04 08:11:14;;;;;;;;;;;20.40;99.90;;;;;;4594301;19;19926;-32
2022/07/04 08:12:45;;;;;;;;;;;20.50;99.90;;;;;;4594938;19;19914;-32
2022/07/04 08:14:16;;;;;;;;;;;20.50;99.90;;;;;;4594256;19;19915;-33
2022/07/04 08:15:47;;;;;;;;;;;20.50;99.90;;;;;;4593909;19;19932;-34
2022/07/04 08:17:18;;;;;;;;;;;20.50;99.90;;;;;;4594316;19;20332;-33
2022/07/04 08:18:49;;;;;;;;;;;20.50;99.90;;;;;;4594731;19;19918;-33
2022/07/04 08:20:20;;;;;;;;;;;20.50;99.90;;;;;;4595487;19;19933;-32
2022/07/04 08:21:52;;;;;;;;;;;20.50;99.90;;;;;;4595985;19;19931;-33
2022/07/04 08:23:22;;;;;;;;;;;20.50;99.90;;;;;;4593631;19;19949;-34
2022/07/04 08:24:53;;;;;;;;;;;20.40;99.90;;;;;;4595100;19;19915;-33
2022/07/04 08:26:25;;;;;;;;;;;20.40;99.90;;;;;;4594182;19;19911;-32
2022/07/04 08:27:56;;;;;;;;;;;20.40;99.90;;;;;;4594324;19;19923;-33
2022/07/04 08:29:30;;;;;;;;;;;20.50;99.90;;;;;;4594742;19;19911;-33
2022/07/04 08:31:01;;;;;;;;;;;20.50;99.90;;;;;;4595001;19;19918;-33
2022/07/04 08:32:33;;;;;;;;;;;20.50;99.90;;;;;;4594713;19;19943;-32
2022/07/04 08:34:04;;;;;;;;;;;20.50;99.90;;;;;;4594470;19;19919;-32
2022/07/04 08:35:35;;;;;;;;;;;20.60;99.90;;;;;;4593676;19;19982;-32
2022/07/04 08:37:06;;;;;;;;;;;20.60;99.90;;;;;;4592904;19;20324;-32
2022/07/04 08:38:38;;;;;;;;;;;20.60;99.90;;;;;;4594662;19;19929;-32
2022/07/04 08:40:09;;;;;;;;;;;20.60;99.90;;;;;;4592374;19;19923;-32
2022/07/04 08:41:41;;;;;;;;;;;20.60;99.90;;;;;;4593334;19;19987;-33
2022/07/04 08:43:12;;;;;;;;;;;20.60;99.90;;;;;;4590865;19;19942;-33
2022/07/04 08:44:47;;;;;;;;;;;20.60;99.90;;;;;;4593637;19;19911;-32
2022/07/04 08:46:20;;;;;;;;;;;20.60;99.90;;;;;;4593510;19;19943;-32
2022/07/04 08:47:52;;;;;;;;;;;20.70;99.90;;;;;;4592261;19;19927;-31
2022/07/04 08:49:23;;;;;;;;;;;20.70;99.90;;;;;;4593014;19;19919;-33
2022/07/04 08:50:56;;;;;;;;;;;20.70;99.90;;;;;;4592456;19;19915;-32
2022/07/04 08:52:35;;;;;;;;;;;20.70;99.90;;;;;;4593167;19;20324;-32
2022/07/04 08:58:25;;;;;;;;;;;20.70;99.90;;;;;;4594391;19;20353;-31
2022/07/04 08:59:37;;;;;;;;;;;20.80;99.90;;;;;;4591987;19;19919;-32
2022/07/04 09:01:14;;;;;;;;;;;20.80;99.90;;;;;;4591477;19;20412;-32